createdAt,value
2017-12-04T00:00:32.051Z,1.60
2017-12-04T00:01:32.037Z,1.80
2017-12-04T00:02:31.999Z,1.60
2017-12-04T00:03:31.987Z,1.50
2017-12-04T00:04:31.983Z,1.70
2017-12-04T00:05:31.932Z,1.60
2017-12-04T00:06:31.943Z,2.10
2017-12-04T00:07:31.914Z,1.50
2017-12-04T00:08:31.907Z,1.50
2017-12-04T00:09:31.879Z,1.80
2017-12-04T00:10:31.851Z,1.70
2017-12-04T00:11:31.824Z,1.80
2017-12-04T00:12:31.825Z,1.40
2017-12-04T00:13:31.788Z,1.60
2017-12-04T00:14:31.783Z,1.70
2017-12-04T00:15:31.756Z,1.60
2017-12-04T00:16:31.729Z,1.90
2017-12-04T00:17:31.712Z,1.50
2017-12-04T00:18:31.708Z,1.80
2017-12-04T00:19:31.704Z,1.90
2017-12-04T00:20:31.662Z,1.70
2017-12-04T00:21:31.640Z,1.80
2017-12-04T00:22:31.626Z,1.60
2017-12-04T00:23:31.610Z,1.70
2017-12-04T00:24:31.592Z,1.80
2017-12-04T00:25:31.563Z,2.00
2017-12-04T00:26:31.561Z,1.60
2017-12-04T00:27:31.522Z,1.90
2017-12-04T00:28:31.510Z,1.70
2017-12-04T00:29:31.489Z,1.60
2017-12-04T00:30:31.472Z,2.00
2017-12-04T00:31:31.463Z,1.60
2017-12-04T00:32:31.432Z,2.00
2017-12-04T00:33:31.401Z,1.60
2017-12-04T00:34:31.379Z,1.60
2017-12-04T00:35:31.373Z,1.60
2017-12-04T00:36:31.354Z,1.90
2017-12-04T00:37:31.341Z,1.60
2017-12-04T00:38:31.352Z,1.50
2017-12-04T00:39:31.312Z,1.60
2017-12-04T00:40:31.312Z,2.30
2017-12-04T00:41:31.253Z,1.60
2017-12-04T00:42:31.244Z,1.80
2017-12-04T00:43:31.244Z,1.90
2017-12-04T00:44:31.183Z,1.80
2017-12-04T00:45:31.178Z,1.40
2017-12-04T00:46:31.150Z,2.00
2017-12-04T00:47:31.144Z,1.90
2017-12-04T00:48:31.114Z,1.90
2017-12-04T00:49:31.112Z,1.70
2017-12-04T00:50:31.091Z,2.00
2017-12-04T00:51:31.075Z,1.70
2017-12-04T00:52:31.032Z,1.40
2017-12-04T00:53:31.040Z,1.80
2017-12-04T00:54:31.036Z,1.50
2017-12-04T00:55:30.985Z,1.80
2017-12-04T00:56:30.963Z,2.00
2017-12-04T00:57:30.963Z,2.10
2017-12-04T00:58:30.938Z,2.10
2017-12-04T00:59:30.909Z,1.60
2017-12-04T01:00:30.887Z,1.60
2017-12-04T01:01:30.872Z,1.40
2017-12-04T01:02:30.851Z,1.70
2017-12-04T01:03:30.842Z,1.60
2017-12-04T01:04:30.819Z,1.70
2017-12-04T01:05:30.803Z,1.80
2017-12-04T01:06:30.777Z,2.00
2017-12-04T01:07:30.764Z,1.70
2017-12-04T01:08:30.730Z,2.20
2017-12-04T01:09:30.698Z,2.00
2017-12-04T01:10:30.683Z,1.80
2017-12-04T01:11:30.687Z,1.50
2017-12-04T01:12:30.658Z,1.50
2017-12-04T01:13:30.631Z,1.90
2017-12-04T01:14:30.627Z,1.50
2017-12-04T01:15:30.605Z,1.90
2017-12-04T01:16:30.597Z,1.50
2017-12-04T01:17:30.566Z,2.20
2017-12-04T01:18:30.526Z,1.60
2017-12-04T01:19:30.512Z,1.30
2017-12-04T01:20:30.515Z,1.50
2017-12-04T01:21:30.484Z,1.80
2017-12-04T01:22:30.475Z,1.60
2017-12-04T01:23:30.449Z,1.70
2017-12-04T01:24:30.434Z,1.80
2017-12-04T01:25:30.420Z,2.10
2017-12-04T01:26:30.411Z,1.40
2017-12-04T01:27:30.373Z,1.60
2017-12-04T01:28:30.371Z,1.80
2017-12-04T01:29:30.349Z,1.90
2017-12-04T01:30:30.310Z,2.40
2017-12-04T01:31:30.295Z,1.50
2017-12-04T01:32:30.264Z,1.90
2017-12-04T01:33:30.258Z,1.80
2017-12-04T01:34:30.248Z,1.50
2017-12-04T01:35:30.217Z,2.00
2017-12-04T01:36:30.200Z,1.90
2017-12-04T01:37:30.171Z,1.60
2017-12-04T01:38:30.178Z,1.90
2017-12-04T01:39:30.129Z,1.90
2017-12-04T01:40:30.117Z,1.90
2017-12-04T01:41:30.101Z,1.20
2017-12-04T01:42:30.083Z,1.70
2017-12-04T01:43:30.059Z,1.70
2017-12-04T01:44:30.036Z,1.60
2017-12-04T01:45:30.010Z,1.60
2017-12-04T01:46:29.987Z,2.20
2017-12-04T01:47:29.973Z,1.80
2017-12-04T01:48:29.968Z,1.60
2017-12-04T01:49:29.949Z,2.00
2017-12-04T01:50:29.910Z,1.60
2017-12-04T01:51:29.909Z,1.90
2017-12-04T01:52:29.877Z,1.50
2017-12-04T01:53:29.860Z,2.10
2017-12-04T01:54:29.848Z,2.20
2017-12-04T01:55:29.849Z,2.00
2017-12-04T01:56:29.807Z,1.70
2017-12-04T01:57:29.779Z,1.70
2017-12-04T01:58:29.760Z,1.60
2017-12-04T01:59:29.754Z,1.80
2017-12-04T02:00:29.714Z,2.10
2017-12-04T02:01:29.705Z,1.30
2017-12-04T02:02:29.695Z,1.60
2017-12-04T02:03:29.673Z,1.70
2017-12-04T02:04:29.636Z,2.00
2017-12-04T02:05:29.613Z,1.70
2017-12-04T02:06:29.605Z,1.50
2017-12-04T02:07:29.606Z,1.50
2017-12-04T02:08:29.563Z,1.90
2017-12-04T02:09:29.556Z,1.70
2017-12-04T02:10:29.552Z,1.40
2017-12-04T02:11:29.517Z,1.50
2017-12-04T02:12:29.482Z,2.00
2017-12-04T02:13:29.477Z,1.40
2017-12-04T02:14:29.458Z,2.10
2017-12-04T02:15:29.440Z,1.60
2017-12-04T02:16:29.416Z,1.60
2017-12-04T02:17:29.397Z,1.70
2017-12-04T02:18:29.377Z,1.80
2017-12-04T02:19:29.366Z,1.70
2017-12-04T02:20:29.358Z,1.70
2017-12-04T02:21:29.322Z,1.90
2017-12-04T02:22:29.303Z,1.40
2017-12-04T02:23:29.293Z,1.60
2017-12-04T02:24:29.260Z,1.70
2017-12-04T02:25:29.246Z,1.80
2017-12-04T02:26:29.220Z,1.40
2017-12-04T02:27:29.199Z,1.60
2017-12-04T02:28:29.215Z,1.60
2017-12-04T02:29:29.170Z,1.50
2017-12-04T02:30:29.177Z,1.80
2017-12-04T02:31:29.117Z,2.00
2017-12-04T02:32:29.107Z,1.30
2017-12-04T02:33:29.087Z,1.70
2017-12-04T02:34:29.059Z,1.50
2017-12-04T02:35:29.043Z,2.00
2017-12-04T02:36:29.023Z,1.50
2017-12-04T02:37:29.009Z,1.20
2017-12-04T02:38:28.980Z,1.30
2017-12-04T02:39:28.980Z,1.60
2017-12-04T02:40:28.954Z,1.30
2017-12-04T02:41:28.923Z,1.50
2017-12-04T02:42:28.933Z,1.40
2017-12-04T02:43:28.881Z,1.60
2017-12-04T02:44:28.874Z,1.70
2017-12-04T02:45:28.863Z,1.40
2017-12-04T02:46:28.833Z,1.80
2017-12-04T02:47:28.819Z,1.50
2017-12-04T02:48:28.782Z,1.60
2017-12-04T02:49:28.776Z,1.30
2017-12-04T02:50:28.740Z,1.90
2017-12-04T02:51:28.727Z,1.60
2017-12-04T02:52:28.715Z,1.80
2017-12-04T02:53:28.693Z,2.20
2017-12-04T02:54:28.675Z,1.30
2017-12-04T02:55:28.651Z,1.60
2017-12-04T02:56:28.642Z,1.60
2017-12-04T02:57:28.613Z,1.60
2017-12-04T02:58:28.595Z,1.40
2017-12-04T02:59:28.578Z,1.20
2017-12-04T03:00:28.559Z,1.40
2017-12-04T03:01:28.527Z,1.10
2017-12-04T03:02:28.532Z,1.70
2017-12-04T03:03:28.500Z,1.60
2017-12-04T03:04:29.368Z,1.60
2017-12-04T03:05:28.464Z,1.70
2017-12-04T03:06:28.433Z,1.40
2017-12-04T03:07:28.425Z,1.40
2017-12-04T03:08:28.400Z,1.70
2017-12-04T03:09:28.356Z,1.80
2017-12-04T03:10:28.361Z,1.70
2017-12-04T03:11:28.351Z,1.50
2017-12-04T03:12:28.312Z,1.50
2017-12-04T03:13:28.299Z,1.40
2017-12-04T03:14:28.275Z,1.40
2017-12-04T03:15:28.265Z,1.80
2017-12-04T03:16:28.222Z,1.50
2017-12-04T03:17:28.215Z,1.30
2017-12-04T03:18:28.193Z,1.20
2017-12-04T03:19:28.186Z,1.70
2017-12-04T03:20:28.152Z,1.60
2017-12-04T03:21:28.133Z,1.70
2017-12-04T03:22:28.117Z,1.40
2017-12-04T03:23:28.093Z,2.00
2017-12-04T03:24:28.093Z,1.60
2017-12-04T03:25:28.063Z,1.50
2017-12-04T03:26:28.025Z,1.70
2017-12-04T03:27:28.023Z,1.60
2017-12-04T03:28:28.009Z,1.50
2017-12-04T03:29:27.981Z,1.50
2017-12-04T03:30:27.951Z,1.70
2017-12-04T03:31:27.934Z,1.50
2017-12-04T03:32:27.909Z,1.80
2017-12-04T03:33:27.905Z,1.30
2017-12-04T03:34:27.885Z,1.40
2017-12-04T03:35:27.853Z,1.30
2017-12-04T03:36:27.825Z,1.50
2017-12-04T03:37:27.805Z,1.50
2017-12-04T03:38:27.795Z,1.40
2017-12-04T03:39:27.786Z,1.50
2017-12-04T03:40:27.765Z,1.60
2017-12-04T03:41:27.740Z,1.40
2017-12-04T03:42:27.731Z,1.50
2017-12-04T03:43:27.702Z,1.40
2017-12-04T03:44:27.693Z,1.40
2017-12-04T03:45:27.662Z,1.80
2017-12-04T03:46:27.655Z,1.50
2017-12-04T03:47:27.703Z,1.40
2017-12-04T03:48:27.603Z,1.60
2017-12-04T03:49:27.593Z,1.30
2017-12-04T03:50:27.827Z,1.50
2017-12-04T03:51:27.726Z,1.40
2017-12-04T03:52:27.534Z,1.60
2017-12-04T03:53:27.512Z,1.50
2017-12-04T03:54:27.491Z,1.40
2017-12-04T03:55:27.471Z,1.20
2017-12-04T03:56:27.451Z,1.40
2017-12-04T03:57:27.423Z,1.60
2017-12-04T03:58:27.410Z,1.20
2017-12-04T03:59:27.378Z,1.30
2017-12-04T04:00:27.382Z,1.30
2017-12-04T04:01:27.356Z,1.40
2017-12-04T04:02:27.332Z,1.40
2017-12-04T04:03:27.315Z,1.80
2017-12-04T04:04:27.290Z,1.40
2017-12-04T04:05:27.270Z,1.50
2017-12-04T04:06:27.233Z,1.30
2017-12-04T04:07:27.225Z,1.20
2017-12-04T04:08:27.222Z,1.50
2017-12-04T04:09:27.189Z,1.50
2017-12-04T04:10:27.178Z,1.30
2017-12-04T04:11:27.144Z,1.40
2017-12-04T04:12:27.113Z,1.30
2017-12-04T04:13:27.112Z,1.20
2017-12-04T04:14:27.083Z,1.40
2017-12-04T04:15:27.075Z,1.60
2017-12-04T04:16:27.028Z,1.70
2017-12-04T04:17:27.046Z,1.30
2017-12-04T04:18:27.015Z,1.50
2017-12-04T04:19:27.002Z,1.90
2017-12-04T04:20:26.956Z,1.60
2017-12-04T04:21:26.977Z,1.20
2017-12-04T04:22:26.970Z,1.30
2017-12-04T04:23:26.917Z,1.30
2017-12-04T04:24:26.898Z,1.30
2017-12-04T04:25:26.913Z,1.30
2017-12-04T04:26:26.844Z,1.40
2017-12-04T04:27:26.820Z,1.40
2017-12-04T04:28:26.823Z,1.50
2017-12-04T04:29:26.781Z,1.40
2017-12-04T04:30:26.767Z,1.20
2017-12-04T04:31:26.758Z,1.20
2017-12-04T04:32:26.735Z,1.50
2017-12-04T04:33:26.709Z,1.70
2017-12-04T04:34:26.689Z,1.30
2017-12-04T04:35:26.705Z,1.30
2017-12-04T04:36:26.652Z,1.80
2017-12-04T04:37:26.642Z,1.30
2017-12-04T04:38:26.612Z,1.30
2017-12-04T04:39:26.592Z,1.40
2017-12-04T04:40:26.577Z,1.50
2017-12-04T04:41:26.569Z,1.20
2017-12-04T04:42:26.533Z,1.20
2017-12-04T04:43:26.511Z,1.20
2017-12-04T04:44:26.477Z,1.20
2017-12-04T04:45:26.457Z,1.50
2017-12-04T04:46:26.459Z,1.20
2017-12-04T04:47:26.433Z,1.30
2017-12-04T04:48:26.406Z,1.40
2017-12-04T04:49:26.386Z,1.30
2017-12-04T04:50:26.366Z,1.60
2017-12-04T04:51:26.361Z,1.60
2017-12-04T04:52:26.326Z,1.30
2017-12-04T04:53:26.313Z,1.90
2017-12-04T04:54:26.299Z,1.70
2017-12-04T04:55:26.258Z,1.10
2017-12-04T04:56:26.254Z,1.00
2017-12-04T04:57:26.231Z,0.90
2017-12-04T04:58:26.215Z,1.80
2017-12-04T04:59:26.211Z,1.20
2017-12-04T05:00:26.167Z,1.50
2017-12-04T05:01:26.171Z,1.50
2017-12-04T05:02:26.139Z,1.40
2017-12-04T05:03:26.123Z,1.60
2017-12-04T05:04:26.091Z,1.50
2017-12-04T05:05:26.076Z,1.10
2017-12-04T05:06:26.051Z,1.90
2017-12-04T05:07:26.038Z,1.70
2017-12-04T05:08:26.015Z,1.20
2017-12-04T05:09:26.089Z,1.60
2017-12-04T05:10:25.972Z,1.40
2017-12-04T05:11:25.959Z,1.00
2017-12-04T05:12:25.946Z,1.20
2017-12-04T05:13:25.916Z,1.50
2017-12-04T05:14:25.885Z,1.20
2017-12-04T05:15:25.871Z,1.20
2017-12-04T05:16:25.894Z,1.20
2017-12-04T05:17:25.832Z,1.20
2017-12-04T05:18:25.812Z,1.40
2017-12-04T05:19:25.788Z,1.20
2017-12-04T05:20:25.773Z,1.30
2017-12-04T05:21:25.743Z,1.40
2017-12-04T05:22:25.738Z,1.30
2017-12-04T05:23:25.720Z,1.20
2017-12-04T05:24:25.676Z,1.50
2017-12-04T05:25:25.667Z,1.40
2017-12-04T05:26:25.646Z,0.90
2017-12-04T05:27:25.631Z,1.20
2017-12-04T05:28:25.600Z,1.20
2017-12-04T05:29:25.594Z,1.60
2017-12-04T05:30:25.577Z,1.40
2017-12-04T05:31:25.556Z,1.20
2017-12-04T05:32:25.526Z,1.00
2017-12-04T05:33:25.513Z,1.20
2017-12-04T05:34:25.474Z,1.10
2017-12-04T05:35:25.482Z,1.40
2017-12-04T05:36:25.447Z,1.20
2017-12-04T05:37:25.426Z,1.50
2017-12-04T05:38:25.419Z,1.30
2017-12-04T05:39:25.382Z,1.50
2017-12-04T05:40:25.369Z,1.20
2017-12-04T05:41:25.513Z,0.90
2017-12-04T05:42:25.405Z,1.30
2017-12-04T05:43:25.416Z,1.40
2017-12-04T05:44:25.330Z,1.40
2017-12-04T05:45:25.411Z,1.20
2017-12-04T05:46:25.250Z,1.30
2017-12-04T05:47:26.039Z,1.30
2017-12-04T05:48:25.255Z,1.40
2017-12-04T05:50:46.671Z,1.10
2017-12-04T05:51:46.508Z,0.90
2017-12-04T05:52:46.503Z,1.00
2017-12-04T05:53:46.625Z,1.30
2017-12-04T05:54:46.628Z,1.50
2017-12-04T05:55:46.415Z,1.30
2017-12-04T05:56:47.147Z,0.90
2017-12-04T05:57:46.372Z,1.10
2017-12-04T05:58:46.354Z,1.10
2017-12-04T05:59:46.342Z,1.60
2017-12-04T06:00:46.318Z,1.00
2017-12-04T06:01:46.296Z,1.50
2017-12-04T06:02:46.255Z,1.30
2017-12-04T06:03:46.256Z,1.70
2017-12-04T06:04:46.215Z,1.30
2017-12-04T06:05:46.225Z,1.50
2017-12-04T06:06:46.198Z,1.30
2017-12-04T06:07:46.162Z,1.50
2017-12-04T06:08:46.166Z,1.60
2017-12-04T06:09:46.124Z,1.60
2017-12-04T06:10:46.109Z,1.10
2017-12-04T06:11:46.077Z,1.30
2017-12-04T06:12:46.073Z,1.30
2017-12-04T06:13:46.061Z,1.40
2017-12-04T06:14:46.037Z,1.30
2017-12-04T06:15:46.010Z,1.50
2017-12-04T06:16:45.990Z,1.30
2017-12-04T06:17:45.969Z,1.50
2017-12-04T06:18:45.961Z,1.50
2017-12-04T06:19:45.915Z,1.30
2017-12-04T06:20:45.921Z,1.30
2017-12-04T06:21:45.894Z,1.30
2017-12-04T06:22:45.868Z,1.40
2017-12-04T06:23:45.839Z,1.40
2017-12-04T06:24:45.843Z,1.40
2017-12-04T06:25:45.789Z,1.10
2017-12-04T06:26:45.784Z,1.60
2017-12-04T06:27:45.760Z,1.40
2017-12-04T06:28:45.748Z,1.20
2017-12-04T06:29:45.743Z,1.40
2017-12-04T06:30:45.717Z,1.40
2017-12-04T06:31:45.700Z,1.40
2017-12-04T06:32:45.682Z,1.30
2017-12-04T06:33:45.639Z,1.40
2017-12-04T06:34:45.613Z,1.50
2017-12-04T06:35:45.609Z,1.30
2017-12-04T06:36:45.595Z,1.10
2017-12-04T06:37:45.569Z,1.50
2017-12-04T06:38:45.548Z,1.30
2017-12-04T06:39:45.527Z,1.60
2017-12-04T06:40:45.510Z,1.40
2017-12-04T06:41:45.481Z,1.20
2017-12-04T06:42:45.482Z,1.70
2017-12-04T06:43:45.446Z,1.30
2017-12-04T06:44:45.424Z,1.60
2017-12-04T06:45:45.410Z,1.40
2017-12-04T06:46:45.391Z,1.30
2017-12-04T06:47:45.380Z,1.30
2017-12-04T06:48:45.357Z,1.10
2017-12-04T06:49:45.313Z,1.50
2017-12-04T06:50:45.311Z,1.40
2017-12-04T06:51:45.276Z,1.40
2017-12-04T06:52:45.259Z,1.60
2017-12-04T06:53:45.258Z,1.30
2017-12-04T06:54:45.247Z,1.50
2017-12-04T06:55:45.207Z,1.70
2017-12-04T06:56:45.207Z,1.40
2017-12-04T06:57:45.179Z,1.10
2017-12-04T06:58:45.175Z,1.30
2017-12-04T06:59:45.122Z,1.30
2017-12-04T07:00:45.090Z,1.40
2017-12-04T07:01:45.083Z,1.50
2017-12-04T07:02:45.086Z,1.40
2017-12-04T07:03:45.038Z,1.40
2017-12-04T07:04:45.032Z,1.40
2017-12-04T07:05:44.998Z,1.60
2017-12-04T07:06:44.986Z,1.40
2017-12-04T07:07:44.961Z,1.40
2017-12-04T07:08:44.934Z,1.90
2017-12-04T07:09:44.925Z,1.30
2017-12-04T07:10:44.888Z,1.70
2017-12-04T07:11:44.869Z,1.40
2017-12-04T07:12:44.885Z,1.40
2017-12-04T07:13:44.839Z,1.50
2017-12-04T07:14:44.829Z,1.60
2017-12-04T07:15:44.783Z,1.40
2017-12-04T07:16:44.779Z,1.40
2017-12-04T07:17:44.750Z,1.40
2017-12-04T07:18:44.736Z,1.90
2017-12-04T07:19:44.705Z,1.20
2017-12-04T07:20:44.689Z,1.70
2017-12-04T07:21:44.666Z,1.20
2017-12-04T07:22:44.661Z,1.50
2017-12-04T07:23:44.632Z,1.30
2017-12-04T07:24:44.613Z,1.20
2017-12-04T07:25:44.589Z,1.40
2017-12-04T07:26:44.582Z,1.20
2017-12-04T07:27:44.565Z,1.70
2017-12-04T07:28:44.531Z,1.50
2017-12-04T07:29:44.498Z,1.50
2017-12-04T07:30:44.475Z,1.60
2017-12-04T07:31:44.465Z,1.50
2017-12-04T07:32:44.435Z,1.50
2017-12-04T07:33:44.424Z,1.30
2017-12-04T07:34:44.416Z,1.40
2017-12-04T07:35:44.394Z,1.60
2017-12-04T07:36:44.372Z,1.40
2017-12-04T07:37:44.333Z,1.50
2017-12-04T07:38:44.339Z,1.60
2017-12-04T07:39:44.307Z,1.70
2017-12-04T07:40:44.285Z,1.80
2017-12-04T07:41:44.274Z,1.70
2017-12-04T07:42:44.246Z,1.70
2017-12-04T07:43:44.220Z,1.50
2017-12-04T07:44:44.201Z,1.60
2017-12-04T07:45:44.173Z,1.70
2017-12-04T07:46:44.168Z,1.30
2017-12-04T07:47:44.153Z,1.60
2017-12-04T07:48:44.120Z,2.00
2017-12-04T07:49:44.106Z,1.60
2017-12-04T07:50:44.081Z,1.70
2017-12-04T07:51:44.072Z,1.60
2017-12-04T07:52:44.049Z,1.70
2017-12-04T07:53:44.017Z,1.60
2017-12-04T07:54:44.004Z,1.60
2017-12-04T07:55:43.971Z,1.50
2017-12-04T07:56:43.963Z,2.00
2017-12-04T07:57:43.957Z,1.40
2017-12-04T07:58:43.912Z,1.40
2017-12-04T07:59:43.888Z,2.00
2017-12-04T08:00:43.872Z,1.60
2017-12-04T08:01:43.865Z,1.60
2017-12-04T08:02:43.843Z,1.60
2017-12-04T08:03:43.812Z,1.60
2017-12-04T08:04:43.812Z,1.70
2017-12-04T08:05:43.781Z,1.60
2017-12-04T08:06:43.755Z,1.50
2017-12-04T08:07:43.724Z,1.90
2017-12-04T08:08:43.716Z,1.60
2017-12-04T08:09:43.699Z,1.80
2017-12-04T08:10:43.671Z,1.40
2017-12-04T08:11:43.643Z,1.60
2017-12-04T08:12:43.639Z,1.40
2017-12-04T08:13:43.605Z,1.90
2017-12-04T08:14:43.596Z,1.70
2017-12-04T08:15:43.563Z,1.80
2017-12-04T08:16:43.543Z,1.70
2017-12-04T08:17:43.598Z,1.50
2017-12-04T08:18:43.499Z,2.10
2017-12-04T08:19:43.490Z,1.60
2017-12-04T08:20:43.460Z,1.50
2017-12-04T08:21:43.454Z,1.80
2017-12-04T08:22:43.450Z,1.90
2017-12-04T08:23:43.401Z,1.70
2017-12-04T08:24:43.399Z,1.40
2017-12-04T08:25:43.359Z,1.60
2017-12-04T08:26:43.356Z,2.00
2017-12-04T08:27:43.319Z,1.60
2017-12-04T08:28:43.299Z,1.60
2017-12-04T08:29:43.293Z,1.50
2017-12-04T08:30:43.253Z,1.80
2017-12-04T08:31:43.246Z,1.90
2017-12-04T08:32:43.216Z,1.60
2017-12-04T08:33:43.213Z,1.60
2017-12-04T08:34:43.196Z,1.90
2017-12-04T08:35:43.151Z,1.70
2017-12-04T08:36:43.142Z,1.70
2017-12-04T08:37:43.110Z,1.60
2017-12-04T08:38:43.123Z,1.50
2017-12-04T08:39:43.068Z,1.50
2017-12-04T08:40:43.056Z,1.50
2017-12-04T08:41:43.039Z,1.90
2017-12-04T08:42:43.020Z,1.90
2017-12-04T08:43:42.989Z,1.30
2017-12-04T08:44:42.963Z,1.30
2017-12-04T08:45:42.958Z,1.30
2017-12-04T08:46:42.930Z,1.80
2017-12-04T08:47:42.924Z,1.70
2017-12-04T08:48:42.893Z,1.70
2017-12-04T08:49:42.876Z,1.60
2017-12-04T08:50:42.842Z,1.50
2017-12-04T08:51:42.834Z,1.70
2017-12-04T08:52:42.804Z,1.50
2017-12-04T08:53:42.783Z,1.70
2017-12-04T08:54:42.779Z,1.50
2017-12-04T08:55:42.743Z,1.90
2017-12-04T08:56:42.731Z,1.70
2017-12-04T08:57:42.718Z,1.70
2017-12-04T08:58:42.693Z,1.70
2017-12-04T08:59:42.673Z,1.40
2017-12-04T09:00:42.640Z,1.70
2017-12-04T09:01:42.634Z,1.90
2017-12-04T09:02:42.619Z,1.40
2017-12-04T09:03:42.584Z,1.70
2017-12-04T09:04:42.566Z,1.30
2017-12-04T09:05:42.556Z,1.70
2017-12-04T09:06:42.524Z,1.70
2017-12-04T09:07:42.502Z,1.50
2017-12-04T09:08:42.482Z,1.30
2017-12-04T09:09:42.463Z,1.50
2017-12-04T09:10:42.433Z,1.60
2017-12-04T09:11:42.429Z,1.70
2017-12-04T09:12:42.400Z,1.80
2017-12-04T09:13:42.370Z,1.50
2017-12-04T09:14:42.360Z,1.80
2017-12-04T09:15:42.352Z,1.90
2017-12-04T09:16:42.327Z,1.60
2017-12-04T09:17:42.293Z,1.50
2017-12-04T09:18:42.289Z,1.20
2017-12-04T09:19:42.248Z,1.50
2017-12-04T09:20:42.230Z,1.30
2017-12-04T09:21:42.229Z,1.50
2017-12-04T09:22:42.205Z,1.30
2017-12-04T09:23:42.180Z,1.80
2017-12-04T09:24:42.150Z,1.50
2017-12-04T09:25:42.124Z,1.90
2017-12-04T09:26:42.098Z,1.60
2017-12-04T09:27:42.085Z,1.40
2017-12-04T09:28:42.081Z,1.30
2017-12-04T09:29:42.056Z,1.60
2017-12-04T09:30:42.039Z,1.60
2017-12-04T09:31:42.007Z,1.40
2017-12-04T09:32:42.003Z,1.50
2017-12-04T09:33:41.968Z,1.70
2017-12-04T09:34:41.947Z,1.60
2017-12-04T09:35:41.925Z,1.40
2017-12-04T09:36:41.910Z,1.50
2017-12-04T09:37:41.875Z,1.30
2017-12-04T09:38:41.862Z,1.60
2017-12-04T09:39:41.834Z,1.60
2017-12-04T09:40:41.832Z,1.50
2017-12-04T09:41:41.805Z,1.80
2017-12-04T09:42:41.789Z,1.40
2017-12-04T09:43:41.747Z,1.70
2017-12-04T09:44:41.731Z,1.40
2017-12-04T09:45:41.712Z,1.20
2017-12-04T09:46:41.692Z,1.60
2017-12-04T09:47:41.682Z,1.80
2017-12-04T09:48:41.671Z,1.40
2017-12-04T09:49:41.648Z,1.40
2017-12-04T09:50:41.616Z,0.90
2017-12-04T09:51:41.604Z,1.40
2017-12-04T09:52:41.576Z,1.40
2017-12-04T09:53:41.554Z,1.60
2017-12-04T09:54:41.542Z,1.70
2017-12-04T09:55:41.516Z,1.70
2017-12-04T09:56:41.495Z,1.80
2017-12-04T09:57:41.463Z,1.50
2017-12-04T09:58:41.463Z,1.40
2017-12-04T09:59:41.431Z,1.70
2017-12-04T10:00:41.420Z,1.30
2017-12-04T10:01:41.389Z,1.40
2017-12-04T10:02:41.372Z,1.20
2017-12-04T10:03:41.330Z,1.30
2017-12-04T10:04:41.325Z,1.70
2017-12-04T10:05:41.314Z,1.50
2017-12-04T10:06:41.300Z,1.30
2017-12-04T10:07:41.275Z,1.20
2017-12-04T10:08:41.249Z,1.30
2017-12-04T10:09:41.234Z,1.50
2017-12-04T10:10:41.192Z,1.30
2017-12-04T10:11:41.185Z,1.50
2017-12-04T10:12:41.162Z,1.50
2017-12-04T10:13:41.147Z,1.40
2017-12-04T10:14:41.116Z,1.20
2017-12-04T10:15:41.108Z,1.10
2017-12-04T10:16:41.076Z,1.10
2017-12-04T10:17:41.067Z,1.10
2017-12-04T10:18:41.027Z,1.70
2017-12-04T10:19:41.024Z,1.60
2017-12-04T10:20:40.995Z,1.30
2017-12-04T10:21:40.965Z,1.70
2017-12-04T10:22:40.967Z,1.50
2017-12-04T10:23:40.944Z,1.40
2017-12-04T10:24:40.930Z,1.30
2017-12-04T10:25:40.901Z,1.30
2017-12-04T10:26:40.872Z,1.40
2017-12-04T10:27:40.851Z,1.50
2017-12-04T10:28:40.842Z,1.60
2017-12-04T10:29:40.803Z,1.70
2017-12-04T10:30:40.801Z,1.70
2017-12-04T10:31:40.821Z,1.80
2017-12-04T10:32:40.750Z,1.30
2017-12-04T10:33:40.730Z,1.40
2017-12-04T10:34:40.710Z,2.00
2017-12-04T10:35:40.672Z,1.30
2017-12-04T10:36:40.678Z,1.50
2017-12-04T10:37:40.652Z,1.30
2017-12-04T10:38:40.628Z,1.10
2017-12-04T10:39:40.601Z,1.50
2017-12-04T10:40:40.652Z,1.40
2017-12-04T10:41:40.579Z,1.20
2017-12-04T10:42:40.536Z,1.30
2017-12-04T10:43:40.521Z,1.20
2017-12-04T10:44:40.547Z,1.60
2017-12-04T10:45:40.614Z,1.40
2017-12-04T10:46:40.518Z,1.30
2017-12-04T10:47:40.461Z,1.40
2017-12-04T10:48:40.470Z,1.40
2017-12-04T10:49:40.386Z,1.80
2017-12-04T10:50:40.484Z,1.40
2017-12-04T10:51:40.346Z,1.50
2017-12-04T10:52:40.416Z,1.90
2017-12-04T10:53:40.358Z,1.70
2017-12-04T10:54:41.049Z,1.60
2017-12-04T10:55:40.369Z,1.50
2017-12-04T10:56:40.266Z,1.20
2017-12-04T10:57:40.236Z,1.40
2017-12-04T10:58:40.197Z,1.50
2017-12-04T10:59:40.198Z,1.60
2017-12-04T11:00:40.220Z,1.40
2017-12-04T11:01:40.140Z,1.40
2017-12-04T11:02:40.128Z,1.50
2017-12-04T11:03:40.117Z,1.70
2017-12-04T11:04:40.098Z,1.30
2017-12-04T11:05:41.032Z,1.30
2017-12-04T11:06:50.732Z,1.60
2017-12-04T11:07:40.036Z,1.80
2017-12-04T11:08:41.261Z,1.90
2017-12-04T11:09:42.798Z,1.60
2017-12-04T11:10:39.990Z,1.80
2017-12-04T11:11:39.943Z,1.90
2017-12-04T11:12:39.921Z,1.70
2017-12-04T11:13:39.896Z,1.70
2017-12-04T11:14:39.870Z,1.80
2017-12-04T11:15:39.863Z,1.80
2017-12-04T11:16:39.848Z,1.80
2017-12-04T11:17:39.847Z,2.00
2017-12-04T11:18:39.793Z,1.80
2017-12-04T11:19:39.782Z,2.10
2017-12-04T11:20:39.764Z,1.90
2017-12-04T11:21:39.757Z,1.80
2017-12-04T11:22:39.715Z,2.40
2017-12-04T11:23:39.698Z,1.50
2017-12-04T11:24:39.675Z,2.30
2017-12-04T11:25:39.650Z,2.10
2017-12-04T11:26:39.654Z,2.10
2017-12-04T11:27:39.607Z,1.90
2017-12-04T11:28:39.621Z,2.10
2017-12-04T11:29:39.578Z,2.20
2017-12-04T11:30:39.559Z,2.20
2017-12-04T11:31:39.671Z,2.20
2017-12-04T11:32:39.509Z,2.50
2017-12-04T11:33:39.496Z,2.00
2017-12-04T11:34:39.484Z,2.20
2017-12-04T11:35:39.460Z,2.30
2017-12-04T11:36:39.443Z,2.30
2017-12-04T11:37:39.420Z,1.90
2017-12-04T11:38:39.376Z,1.90
2017-12-04T11:39:39.489Z,2.30
2017-12-04T11:40:39.345Z,2.00
2017-12-04T11:41:39.310Z,2.00
2017-12-04T11:42:39.303Z,2.30
2017-12-04T11:43:39.282Z,2.80
2017-12-04T11:44:39.276Z,2.70
2017-12-04T11:45:39.232Z,2.20
2017-12-04T11:46:39.237Z,2.10
2017-12-04T11:47:39.347Z,2.30
2017-12-04T11:48:39.182Z,2.40
2017-12-04T11:49:39.162Z,2.10
2017-12-04T11:50:39.248Z,2.30
2017-12-04T11:51:39.114Z,2.70
2017-12-04T11:52:39.099Z,2.80
2017-12-04T11:53:39.086Z,2.10
2017-12-04T11:54:39.243Z,2.90
2017-12-04T11:55:39.044Z,2.80
2017-12-04T11:56:39.034Z,2.80
2017-12-04T11:57:39.014Z,2.10
2017-12-04T11:58:38.978Z,2.80
2017-12-04T11:59:38.972Z,2.30
2017-12-04T12:00:38.947Z,2.60
2017-12-04T12:01:39.011Z,2.60
2017-12-04T12:02:38.903Z,2.70
2017-12-04T12:03:38.882Z,3.40
2017-12-04T12:04:38.843Z,2.50
2017-12-04T12:05:38.845Z,2.50
2017-12-04T12:06:38.829Z,2.60
2017-12-04T12:07:38.906Z,2.40
2017-12-04T12:08:40.033Z,2.30
2017-12-04T12:09:39.559Z,2.70
2017-12-04T12:10:40.043Z,2.70
2017-12-04T12:11:39.544Z,2.40
2017-12-04T12:12:38.786Z,2.90
2017-12-04T12:13:38.679Z,3.30
2017-12-04T12:14:38.653Z,3.10
2017-12-04T12:15:38.623Z,2.40
2017-12-04T12:16:38.618Z,2.30
2017-12-04T12:17:38.597Z,3.40
2017-12-04T12:18:38.585Z,2.80
2017-12-04T12:19:38.557Z,2.80
2017-12-04T12:20:38.575Z,3.00
2017-12-04T12:21:38.520Z,2.50
2017-12-04T12:22:38.483Z,2.60
2017-12-04T12:23:38.479Z,2.70
2017-12-04T12:24:38.458Z,3.00
2017-12-04T12:25:38.434Z,3.20
2017-12-04T12:26:38.399Z,2.70
2017-12-04T12:27:38.398Z,2.80
2017-12-04T12:28:38.368Z,3.00
2017-12-04T12:29:38.366Z,3.10
2017-12-04T12:30:38.334Z,3.00
2017-12-04T12:31:38.321Z,3.20
2017-12-04T12:32:38.405Z,3.10
2017-12-04T12:33:38.967Z,3.00
2017-12-04T12:34:39.064Z,3.00
2017-12-04T12:35:39.062Z,3.60
2017-12-04T12:36:38.202Z,3.40
2017-12-04T12:37:38.216Z,3.00
2017-12-04T12:38:38.180Z,2.70
2017-12-04T12:39:38.149Z,2.80
2017-12-04T12:40:38.120Z,3.00
2017-12-04T12:41:38.098Z,3.00
2017-12-04T12:42:38.092Z,2.80
2017-12-04T12:43:38.075Z,3.50
2017-12-04T12:44:38.079Z,3.70
2017-12-04T12:45:38.026Z,2.80
2017-12-04T12:46:38.013Z,3.10
2017-12-04T12:47:37.996Z,2.70
2017-12-04T12:48:37.988Z,3.00
2017-12-04T12:49:37.936Z,2.60
2017-12-04T12:50:37.935Z,2.60
2017-12-04T12:51:37.907Z,3.00
2017-12-04T12:52:37.894Z,3.20
2017-12-04T12:53:37.870Z,2.90
2017-12-04T12:54:37.839Z,2.50
2017-12-04T12:55:37.848Z,3.00
2017-12-04T12:56:37.797Z,2.90
2017-12-04T12:57:37.785Z,2.80
2017-12-04T12:58:37.753Z,2.60
2017-12-04T12:59:37.744Z,2.90
2017-12-04T13:00:37.743Z,2.70
2017-12-04T13:01:37.709Z,2.20
2017-12-04T13:02:37.685Z,2.60
2017-12-04T13:03:37.662Z,2.80
2017-12-04T13:04:37.672Z,2.60
2017-12-04T13:05:37.621Z,2.90
2017-12-04T13:06:37.725Z,2.50
2017-12-04T13:07:37.595Z,2.30
2017-12-04T13:08:37.568Z,2.50
2017-12-04T13:09:37.538Z,2.90
2017-12-04T13:10:37.536Z,2.90
2017-12-04T13:11:37.492Z,2.50
2017-12-04T13:12:37.481Z,2.40
2017-12-04T13:13:37.467Z,2.50
2017-12-04T13:14:37.437Z,2.60
2017-12-04T13:15:37.411Z,2.40
2017-12-04T13:16:37.406Z,2.50
2017-12-04T13:17:37.484Z,2.40
2017-12-04T13:18:37.365Z,2.20
2017-12-04T13:19:37.347Z,2.40